Time;durP1;ratioP1;P1;durP2;ratioP2;P2;SDS_P1;SDS_P2;PMS_P1;PMS_P2;Temp;Humidity;BMP_temperature;BMP_pressure;BME280_temperature;BME280_humidity;BME280_pressure;Samples;Min_cycle;Max_cycle;Signal;HPM_P1;HPM_P2
2021/11/24 00:00:00;;;;;;;1.50;1.20;;;17.50;61.60;;;;;;5052341;28;20175;-61
2021/11/24 00:02:25;;;;;;;2.47;1.38;;;17.40;61.50;;;;;;5052787;28;20205;-61
2021/11/24 00:04:51;;;;;;;3.83;1.40;;;17.40;61.50;;;;;;5052758;28;20183;-60
2021/11/24 00:07:16;;;;;;;2.13;1.40;;;17.40;61.50;;;;;;5051916;28;20488;-59
2021/11/24 00:09:42;;;;;;;2.92;1.35;;;17.40;61.50;;;;;;5052424;28;20179;-59
2021/11/24 00:12:08;;;;;;;2.65;1.00;;;17.40;61.50;;;;;;5052398;28;20657;-61
2021/11/24 00:14:33;;;;;;;2.25;1.50;;;17.40;61.50;;;;;;5051610;28;20194;-62
2021/11/24 00:16:59;;;;;;;2.30;1.30;;;17.40;61.50;;;;;;5052740;28;20579;-61
2021/11/24 00:19:24;;;;;;;1.90;1.20;;;17.40;61.50;;;;;;5052840;28;20243;-61
2021/11/24 00:21:50;;;;;;;1.30;1.20;;;17.40;61.50;;;;;;5051531;28;20167;-61
2021/11/24 00:24:15;;;;;;;1.83;1.23;;;17.40;61.50;;;;;;5052647;28;20175;-61
2021/11/24 00:26:41;;;;;;;3.83;1.48;;;17.40;61.50;;;;;;5052189;28;20510;-61
2021/11/24 00:29:06;;;;;;;2.45;1.20;;;17.40;61.50;;;;;;5051556;28;20507;-61
2021/11/24 00:31:32;;;;;;;1.88;1.40;;;17.30;61.50;;;;;;5051967;28;20175;-61
2021/11/24 00:33:59;;;;;;;1.70;1.17;;;17.30;61.60;;;;;;5052104;28;20304;-60
2021/11/24 00:36:25;;;;;;;2.20;1.50;;;17.30;61.50;;;;;;5051707;28;20182;-61
2021/11/24 00:38:50;;;;;;;1.20;1.10;;;17.30;61.50;;;;;;5051934;28;20179;-62
2021/11/24 00:41:16;;;;;;;2.80;1.30;;;17.30;61.50;;;;;;5051998;28;20476;-61
2021/11/24 00:43:41;;;;;;;1.42;1.15;;;17.30;61.50;;;;;;5051239;28;20198;-62
2021/11/24 00:46:07;;;;;;;2.17;1.20;;;17.30;61.60;;;;;;5051991;28;20271;-61
2021/11/24 00:48:32;;;;;;;1.85;1.35;;;17.30;61.50;;;;;;5051797;28;20228;-62
2021/11/24 00:50:58;;;;;;;3.25;1.30;;;17.30;61.60;;;;;;5051425;28;20186;-62
2021/11/24 00:53:23;;;;;;;1.20;1.10;;;17.30;61.50;;;;;;5052024;28;20218;-62
2021/11/24 00:55:49;;;;;;;1.38;1.27;;;17.20;61.40;;;;;;5051084;28;20648;-62
2021/11/24 00:58:15;;;;;;;2.33;1.00;;;17.20;61.40;;;;;;5051310;28;20213;-62
2021/11/24 01:00:40;;;;;;;2.15;1.30;;;17.20;61.50;;;;;;5051535;28;20167;-62
2021/11/24 01:03:06;;;;;;;1.90;1.02;;;17.20;61.50;;;;;;5051385;28;20482;-60
2021/11/24 01:05:31;;;;;;;1.48;1.30;;;17.20;61.50;;;;;;5051476;28;20201;-59
2021/11/24 01:07:57;;;;;;;1.63;1.23;;;17.20;61.50;;;;;;5051733;28;20167;-60
2021/11/24 01:10:22;;;;;;;1.88;1.25;;;17.20;61.50;;;;;;5051357;28;20612;-60
2021/11/24 01:12:48;;;;;;;4.28;1.33;;;17.20;61.60;;;;;;5051538;28;20211;-62
2021/11/24 01:15:14;;;;;;;1.50;0.93;;;17.10;61.50;;;;;;5051817;28;20175;-61
2021/11/24 01:17:39;;;;;;;2.42;1.13;;;17.20;61.50;;;;;;5051068;28;20261;-61
2021/11/24 01:20:05;;;;;;;1.52;1.20;;;17.10;61.40;;;;;;5051940;28;20202;-61
2021/11/24 01:22:31;;;;;;;1.25;1.10;;;17.10;61.40;;;;;;5051619;28;20206;-61
2021/11/24 01:24:56;;;;;;;2.83;1.27;;;17.10;61.40;;;;;;5051071;28;20625;-61
2021/11/24 01:27:22;;;;;;;1.63;1.30;;;17.10;61.40;;;;;;5051952;28;20315;-62
2021/11/24 01:29:47;;;;;;;1.35;1.08;;;17.10;61.40;;;;;;5051283;28;20220;-61
2021/11/24 01:32:13;;;;;;;1.65;1.40;;;17.10;61.40;;;;;;5051112;28;20318;-62
2021/11/24 01:34:38;;;;;;;2.28;1.20;;;17.10;61.50;;;;;;5051645;28;20300;-61
2021/11/24 01:37:04;;;;;;;1.48;1.00;;;17.10;61.40;;;;;;5051722;28;20175;-60
2021/11/24 01:39:29;;;;;;;1.27;1.10;;;17.10;61.50;;;;;;5050360;28;20176;-61
2021/11/24 01:41:55;;;;;;;2.80;1.50;;;17.10;61.50;;;;;;5051597;28;20178;-61
2021/11/24 01:44:22;;;;;;;1.80;1.25;;;17.10;61.40;;;;;;5051468;28;20171;-61
2021/11/24 01:46:59;;;;;;;1.52;1.00;;;17.10;61.40;;;;;;5050279;28;20313;-62
2021/11/24 01:49:24;;;;;;;2.30;1.60;;;17.00;61.30;;;;;;5051540;28;20668;-62
2021/11/24 01:51:50;;;;;;;1.10;0.95;;;17.00;61.30;;;;;;5050987;28;20199;-62
2021/11/24 01:54:16;;;;;;;1.15;0.93;;;17.00;61.40;;;;;;5050655;28;20182;-63
2021/11/24 01:56:41;;;;;;;1.25;1.02;;;17.10;61.50;;;;;;5051197;28;20178;-63
2021/11/24 01:59:10;;;;;;;1.20;1.10;;;17.00;61.50;;;;;;5050596;28;20179;-62
2021/11/24 02:01:37;;;;;;;1.35;1.02;;;17.00;61.40;;;;;;5051123;28;20270;-62
2021/11/24 02:04:03;;;;;;;1.30;1.20;;;17.00;61.50;;;;;;5051221;28;20191;-61
2021/11/24 02:06:28;;;;;;;1.80;1.10;;;17.00;61.40;;;;;;5050258;28;20175;-61
2021/11/24 02:08:54;;;;;;;1.38;1.15;;;17.00;61.50;;;;;;5053285;28;20187;-61
2021/11/24 02:11:19;;;;;;;1.48;1.05;;;17.00;61.40;;;;;;5055059;28;20182;-61
2021/11/24 02:13:45;;;;;;;1.83;1.20;;;16.90;61.40;;;;;;5052441;28;20221;-62
2021/11/24 02:16:11;;;;;;;1.23;1.10;;;17.00;61.50;;;;;;5054828;28;20509;-62
2021/11/24 02:18:36;;;;;;;1.45;1.10;;;17.00;61.50;;;;;;5054480;28;20661;-61
2021/11/24 02:21:02;;;;;;;1.40;1.27;;;17.00;61.50;;;;;;5054244;28;20170;-61
2021/11/24 02:23:27;;;;;;;1.17;1.05;;;16.90;61.50;;;;;;5054954;28;20248;-61
2021/11/24 02:25:53;;;;;;;1.35;1.05;;;16.90;61.50;;;;;;5054359;28;20175;-62
2021/11/24 02:28:18;;;;;;;1.98;1.58;;;16.90;61.40;;;;;;5054198;28;20234;-62
2021/11/24 02:30:44;;;;;;;1.42;1.08;;;16.90;61.40;;;;;;5054525;28;20233;-62
2021/11/24 02:33:09;;;;;;;0.95;0.93;;;16.90;61.40;;;;;;5054596;28;20211;-62
2021/11/24 02:35:35;;;;;;;1.42;1.00;;;16.90;61.40;;;;;;5053656;28;20559;-62
2021/11/24 02:38:03;;;;;;;0.93;0.77;;;16.90;61.50;;;;;;5054407;28;20718;-62
2021/11/24 02:40:30;;;;;;;1.45;0.88;;;16.90;61.50;;;;;;5054040;28;20189;-62
2021/11/24 02:42:55;;;;;;;3.00;0.98;;;16.90;61.50;;;;;;5053541;28;20183;-62
2021/11/24 02:45:21;;;;;;;1.98;1.45;;;16.90;61.40;;;;;;5054184;28;20277;-62
2021/11/24 02:47:46;;;;;;;1.10;1.00;;;16.90;61.50;;;;;;5054012;28;20206;-62
2021/11/24 02:50:12;;;;;;;1.15;1.05;;;16.90;61.50;;;;;;5053644;28;20177;-62
2021/11/24 02:52:37;;;;;;;1.67;1.00;;;16.90;61.50;;;;;;5053792;28;20217;-62
2021/11/24 02:55:04;;;;;;;1.15;0.95;;;16.80;61.40;;;;;;5054221;28;20178;-62
2021/11/24 02:57:39;;;;;;;1.00;1.00;;;16.90;61.50;;;;;;5053244;28;20176;-62
2021/11/24 03:00:12;;;;;;;0.98;0.90;;;16.80;61.40;;;;;;5054229;28;20198;-62
2021/11/24 03:02:38;;;;;;;1.25;1.15;;;16.80;61.40;;;;;;5053096;28;20182;-63
2021/11/24 03:05:04;;;;;;;1.20;1.10;;;16.80;61.40;;;;;;5054061;28;20262;-61
2021/11/24 03:07:29;;;;;;;1.20;0.88;;;16.80;61.50;;;;;;5053571;28;20179;-61
2021/11/24 03:09:55;;;;;;;1.15;1.05;;;16.80;61.40;;;;;;5053165;28;20245;-61
2021/11/24 03:12:21;;;;;;;0.95;0.80;;;16.80;61.40;;;;;;5053778;28;20572;-61
2021/11/24 03:14:46;;;;;;;1.85;1.10;;;16.80;61.40;;;;;;5053510;28;20538;-63
2021/11/24 03:17:12;;;;;;;1.15;0.90;;;16.80;61.50;;;;;;5053116;28;20182;-61
2021/11/24 03:19:37;;;;;;;0.98;0.90;;;16.80;61.40;;;;;;5052815;28;20258;-61
2021/11/24 03:22:03;;;;;;;1.27;1.05;;;16.80;61.40;;;;;;5053898;28;20163;-62
2021/11/24 03:24:28;;;;;;;1.38;1.13;;;16.80;61.50;;;;;;5052529;28;20182;-61
2021/11/24 03:26:54;;;;;;;1.10;0.88;;;16.80;61.50;;;;;;5053390;28;20551;-62
2021/11/24 03:29:19;;;;;;;1.02;0.95;;;16.70;61.50;;;;;;5053432;28;20167;-62
2021/11/24 03:31:45;;;;;;;1.20;0.90;;;16.70;61.50;;;;;;5052437;28;20217;-62
2021/11/24 03:34:10;;;;;;;1.30;0.90;;;16.70;61.90;;;;;;5053471;28;20203;-62
2021/11/24 03:36:37;;;;;;;1.80;1.20;;;16.70;61.40;;;;;;5052916;28;20233;-62
2021/11/24 03:39:03;;;;;;;1.10;1.00;;;16.70;61.40;;;;;;5052570;28;20645;-62
2021/11/24 03:41:29;;;;;;;1.20;0.90;;;16.70;61.40;;;;;;5052938;28;20179;-61
2021/11/24 03:43:54;;;;;;;1.60;1.10;;;16.70;61.50;;;;;;5053044;28;20633;-62
2021/11/24 03:46:20;;;;;;;1.63;1.08;;;16.70;61.50;;;;;;5052352;28;20225;-61
2021/11/24 03:48:45;;;;;;;0.90;0.80;;;16.70;61.50;;;;;;5052880;28;20227;-61
2021/11/24 03:51:11;;;;;;;0.80;0.80;;;16.70;61.50;;;;;;5053103;28;20304;-62
2021/11/24 03:53:40;;;;;;;2.30;1.50;;;16.70;61.50;;;;;;5051941;28;20276;-62
2021/11/24 03:56:06;;;;;;;1.55;1.20;;;16.70;61.50;;;;;;5053095;28;20251;-62
2021/11/24 03:58:32;;;;;;;0.93;0.93;;;16.70;61.50;;;;;;5052543;28;20179;-62
2021/11/24 04:00:58;;;;;;;1.10;1.05;;;16.60;61.40;;;;;;5052409;28;20171;-62
2021/11/24 04:03:23;;;;;;;1.02;0.82;;;16.70;61.50;;;;;;5052726;28;20282;-61
2021/11/24 04:05:52;;;;;;;1.63;1.45;;;16.60;61.40;;;;;;5051835;28;20657;-61
2021/11/24 04:08:18;;;;;;;1.27;1.00;;;16.60;61.40;;;;;;5052934;28;20174;-61
2021/11/24 04:10:43;;;;;;;1.58;1.17;;;16.60;61.40;;;;;;5052553;28;20183;-60
2021/11/24 04:13:09;;;;;;;1.30;1.20;;;16.60;61.50;;;;;;5051876;28;20238;-61
2021/11/24 04:15:34;;;;;;;1.00;0.95;;;16.60;61.50;;;;;;5052473;28;20656;-62
2021/11/24 04:18:00;;;;;;;0.82;0.80;;;16.60;61.40;;;;;;5052522;28;20175;-61
2021/11/24 04:20:25;;;;;;;1.13;1.00;;;16.60;61.40;;;;;;5051837;28;20163;-61
2021/11/24 04:22:51;;;;;;;0.80;0.80;;;16.60;61.50;;;;;;5052098;28;20281;-61
2021/11/24 04:25:19;;;;;;;1.02;1.00;;;16.60;61.50;;;;;;5052780;28;20169;-62
2021/11/24 04:27:45;;;;;;;1.00;0.90;;;16.60;61.50;;;;;;5051614;28;20190;-62
2021/11/24 04:30:11;;;;;;;1.05;0.95;;;16.60;61.50;;;;;;5052567;28;20187;-62
2021/11/24 04:32:37;;;;;;;1.30;1.00;;;16.60;61.50;;;;;;5052195;28;20306;-62
2021/11/24 04:35:03;;;;;;;1.13;1.02;;;17.10;61.80;;;;;;5051721;28;20645;-61
2021/11/24 04:37:28;;;;;;;0.80;0.80;;;16.60;61.50;;;;;;5052068;28;20269;-61
2021/11/24 04:39:54;;;;;;;0.60;0.60;;;16.60;61.50;;;;;;5052502;28;20186;-61
2021/11/24 04:42:19;;;;;;;1.10;1.02;;;16.60;61.50;;;;;;5051682;28;20225;-61
2021/11/24 04:44:45;;;;;;;0.82;0.80;;;16.60;61.50;;;;;;5051999;28;20186;-61
2021/11/24 04:47:10;;;;;;;0.70;0.70;;;16.60;61.50;;;;;;5051970;28;20560;-61
2021/11/24 04:49:36;;;;;;;1.10;0.90;;;16.50;61.50;;;;;;5051106;28;20183;-62
2021/11/24 04:52:02;;;;;;;0.80;0.80;;;16.50;61.40;;;;;;5051955;28;20260;-62
2021/11/24 04:54:27;;;;;;;0.80;0.80;;;16.50;61.50;;;;;;5052186;28;20175;-62
2021/11/24 04:56:53;;;;;;;1.30;0.98;;;16.50;61.50;;;;;;5051023;28;20199;-62
2021/11/24 04:59:18;;;;;;;1.08;0.98;;;16.50;61.50;;;;;;5051970;28;20576;-62
2021/11/24 05:01:44;;;;;;;1.10;1.00;;;16.50;61.50;;;;;;5051776;28;20171;-61
2021/11/24 05:04:09;;;;;;;0.90;0.70;;;16.50;61.50;;;;;;5051224;28;20178;-60
2021/11/24 05:06:35;;;;;;;0.88;0.88;;;16.50;61.50;;;;;;5051481;28;20662;-61
2021/11/24 05:09:00;;;;;;;1.02;0.73;;;16.50;61.50;;;;;;5051068;28;20661;-61
2021/11/24 05:11:26;;;;;;;0.63;0.60;;;16.50;61.50;;;;;;5052075;28;20195;-61
2021/11/24 05:13:54;;;;;;;0.77;0.77;;;16.50;61.50;;;;;;5050395;28;20731;-62
2021/11/24 05:16:21;;;;;;;0.70;0.70;;;16.50;61.50;;;;;;5051287;28;20175;-62
2021/11/24 05:18:48;;;;;;;1.13;1.02;;;16.50;61.50;;;;;;5051577;28;20187;-62
2021/11/24 05:23:57;;;;;;;1.08;0.90;;;16.40;61.40;;;;;;5051065;28;20168;-62
2021/11/24 05:26:23;;;;;;;0.70;0.70;;;16.40;61.40;;;;;;5051741;28;20536;-62
2021/11/24 05:28:49;;;;;;;0.90;0.90;;;16.40;61.40;;;;;;5051406;28;20194;-62
2021/11/24 05:31:14;;;;;;;0.85;0.85;;;16.40;61.50;;;;;;5050955;28;20186;-61
2021/11/24 05:33:40;;;;;;;0.70;0.70;;;16.40;61.50;;;;;;5051292;28;20301;-61
2021/11/24 05:36:05;;;;;;;0.75;0.75;;;16.40;61.50;;;;;;5052167;28;20178;-61
2021/11/24 05:38:31;;;;;;;0.80;0.70;;;16.40;61.40;;;;;;5050803;28;20701;-61
2021/11/24 05:40:57;;;;;;;1.05;0.80;;;16.40;61.40;;;;;;5051380;28;20599;-61
2021/11/24 05:43:26;;;;;;;1.65;0.80;;;16.40;61.50;;;;;;5053166;28;20273;-61
2021/11/24 05:48:18;;;;;;;0.82;0.82;;;16.40;61.50;;;;;;5055433;28;20167;-61
2021/11/24 05:50:45;;;;;;;0.70;0.70;;;16.40;61.60;;;;;;5055254;28;20181;-61
2021/11/24 05:53:15;;;;;;;0.75;0.75;;;16.40;61.50;;;;;;5054626;28;20222;-62
2021/11/24 05:55:47;;;;;;;0.80;0.68;;;16.40;61.60;;;;;;5055087;28;20202;-62
2021/11/24 05:58:13;;;;;;;0.88;0.80;;;16.40;61.60;;;;;;5054684;28;20175;-62
2021/11/24 06:00:39;;;;;;;0.63;0.63;;;16.40;61.60;;;;;;5054791;28;20175;-61
2021/11/24 06:03:04;;;;;;;0.73;0.73;;;16.40;61.50;;;;;;5055389;28;20254;-61
2021/11/24 06:05:30;;;;;;;0.70;0.70;;;16.30;61.50;;;;;;5054171;28;20186;-60
2021/11/24 06:07:56;;;;;;;0.70;0.70;;;16.30;61.60;;;;;;5055255;28;20305;-60
2021/11/24 06:10:21;;;;;;;0.80;0.80;;;16.40;61.60;;;;;;5055100;28;20175;-61
2021/11/24 06:12:47;;;;;;;0.60;0.60;;;16.30;61.50;;;;;;5053966;28;20207;-62
2021/11/24 06:15:15;;;;;;;0.80;0.70;;;16.40;61.60;;;;;;5054912;28;20210;-63
2021/11/24 06:17:50;;;;;;;0.65;0.65;;;16.30;61.60;;;;;;5054437;28;20613;-61
2021/11/24 06:20:16;;;;;;;0.80;0.80;;;16.30;61.60;;;;;;5054049;28;20617;-61
2021/11/24 06:22:43;;;;;;;0.93;0.85;;;16.30;61.50;;;;;;5054479;28;20213;-62
2021/11/24 06:25:09;;;;;;;0.90;0.77;;;16.30;61.50;;;;;;5054943;28;20184;-62
2021/11/24 06:27:35;;;;;;;0.65;0.65;;;16.30;61.60;;;;;;5053625;28;20183;-62
2021/11/24 06:30:00;;;;;;;1.02;0.77;;;16.30;61.60;;;;;;5054471;28;20181;-63
2021/11/24 06:32:26;;;;;;;1.67;0.80;;;16.30;61.60;;;;;;5054733;28;20199;-63
2021/11/24 06:34:51;;;;;;;1.00;1.00;;;16.30;61.60;;;;;;5053664;28;20180;-62
2021/11/24 06:37:17;;;;;;;1.10;0.93;;;16.30;61.60;;;;;;5054515;28;20171;-62
2021/11/24 06:39:42;;;;;;;0.90;0.90;;;16.30;61.60;;;;;;5054251;28;20179;-62
2021/11/24 06:42:09;;;;;;;1.00;0.90;;;16.30;61.60;;;;;;5053651;28;20178;-61
2021/11/24 06:44:34;;;;;;;0.85;0.85;;;16.30;61.60;;;;;;5053949;28;20261;-62
2021/11/24 06:47:00;;;;;;;0.60;0.60;;;16.30;61.70;;;;;;5054053;28;20223;-62
2021/11/24 06:49:25;;;;;;;0.70;0.70;;;16.30;61.60;;;;;;5053675;28;20313;-62
2021/11/24 06:51:51;;;;;;;0.75;0.75;;;16.20;61.50;;;;;;5054093;28;20205;-62
2021/11/24 06:54:17;;;;;;;0.85;0.85;;;16.30;61.60;;;;;;5053272;28;20308;-62
2021/11/24 06:56:44;;;;;;;0.70;0.70;;;16.20;61.50;;;;;;5052785;28;20187;-62
2021/11/24 06:59:10;;;;;;;0.70;0.70;;;16.20;61.60;;;;;;5054049;28;20237;-62
2021/11/24 07:01:35;;;;;;;0.80;0.80;;;16.20;61.60;;;;;;5053250;28;20167;-61
2021/11/24 07:04:04;;;;;;;0.73;0.73;;;16.30;61.70;;;;;;5053974;28;20175;-62
2021/11/24 07:06:29;;;;;;;1.23;0.80;;;16.20;61.50;;;;;;5053928;28;20250;-61
2021/11/24 07:08:55;;;;;;;0.75;0.75;;;16.30;61.70;;;;;;5053268;28;20542;-61
2021/11/24 07:11:23;;;;;;;0.93;0.93;;;16.30;61.60;;;;;;5053718;28;20220;-61
2021/11/24 07:13:51;;;;;;;0.50;0.50;;;16.30;61.40;;;;;;5053698;28;20301;-63
2021/11/24 07:16:17;;;;;;;0.63;0.63;;;16.40;61.60;;;;;;5053243;28;20256;-62
2021/11/24 07:18:42;;;;;;;0.60;0.60;;;16.40;61.60;;;;;;5053691;28;20211;-63
2021/11/24 07:21:08;;;;;;;0.98;0.55;;;16.40;61.60;;;;;;5053874;28;20258;-61
2021/11/24 07:23:33;;;;;;;0.70;0.70;;;16.30;61.40;;;;;;5052790;28;20206;-60
2021/11/24 07:25:59;;;;;;;0.80;0.68;;;16.40;61.60;;;;;;5053564;28;20548;-61
2021/11/24 07:28:24;;;;;;;0.60;0.60;;;16.30;61.50;;;;;;5053816;28;20175;-62
2021/11/24 07:30:50;;;;;;;1.08;0.70;;;16.30;61.60;;;;;;5052728;28;20178;-61
2021/11/24 07:33:15;;;;;;;0.82;0.70;;;16.40;61.40;;;;;;5053569;28;20214;-61
2021/11/24 07:35:41;;;;;;;0.90;0.70;;;16.40;61.60;;;;;;5053035;28;20175;-61
2021/11/24 07:38:06;;;;;;;0.70;0.70;;;16.50;61.50;;;;;;5053029;28;20633;-61
2021/11/24 07:40:32;;;;;;;0.65;0.60;;;16.60;61.50;;;;;;5052977;28;20217;-60
2021/11/24 07:42:57;;;;;;;0.68;0.68;;;16.70;61.10;;;;;;5053588;28;20266;-62
2021/11/24 07:45:23;;;;;;;0.73;0.60;;;16.70;61.00;;;;;;5052555;28;20689;-61
2021/11/24 07:47:48;;;;;;;0.80;0.80;;;16.80;60.80;;;;;;5053151;28;20555;-61
2021/11/24 07:50:14;;;;;;;0.82;0.68;;;17.00;60.70;;;;;;5053410;28;20250;-61
2021/11/24 07:52:39;;;;;;;0.50;0.50;;;17.20;60.30;;;;;;5052117;28;20591;-61
2021/11/24 07:55:05;;;;;;;0.68;0.63;;;17.50;59.80;;;;;;5053018;28;20592;-62
2021/11/24 07:57:31;;;;;;;0.60;0.60;;;17.70;59.40;;;;;;5052777;28;20266;-62
2021/11/24 07:59:56;;;;;;;0.95;0.70;;;18.00;58.70;;;;;;5052521;28;20622;-68
2021/11/24 08:02:23;;;;;;;1.85;0.80;;;18.30;58.40;;;;;;5053125;28;20262;-71
2021/11/24 08:04:48;;;;;;;2.20;0.70;;;18.60;57.80;;;;;;5051868;28;20183;-73
2021/11/24 08:07:14;;;;;;;1.10;0.70;;;18.80;57.50;;;;;;5052469;28;20179;-70
2021/11/24 08:09:39;;;;;;;1.98;1.02;;;18.90;57.40;;;;;;5052388;28;20171;-69
2021/11/24 08:12:05;;;;;;;3.58;0.85;;;19.00;57.40;;;;;;5052016;28;20553;-70
2021/11/24 08:14:31;;;;;;;2.20;0.80;;;19.00;57.40;;;;;;5052302;28;20645;-65
2021/11/24 08:16:56;;;;;;;1.80;1.00;;;19.10;57.50;;;;;;5052566;28;20182;-66
2021/11/24 08:19:22;;;;;;;2.60;0.90;;;19.00;57.60;;;;;;5052082;28;20175;-66
2021/11/24 08:21:48;;;;;;;1.48;0.90;;;19.00;57.50;;;;;;5052358;28;20526;-69
2021/11/24 08:24:13;;;;;;;2.30;1.55;;;19.00;57.70;;;;;;5052336;28;20182;-67
2021/11/24 08:26:41;;;;;;;1.83;1.10;;;19.00;57.90;;;;;;5051333;28;20269;-66
2021/11/24 08:29:07;;;;;;;3.92;1.00;;;19.00;57.90;;;;;;5053920;28;20309;-66
2021/11/24 08:31:39;;;;;;;2.97;1.10;;;19.00;57.80;;;;;;5058850;28;20654;-67
2021/11/24 08:34:05;;;;;;;2.97;1.15;;;19.00;57.80;;;;;;5068112;28;20344;-66
2021/11/24 08:36:30;;;;;;;4.25;1.23;;;19.00;57.90;;;;;;5070677;28;20202;-66
2021/11/24 08:38:57;;;;;;;1.80;0.80;;;19.00;57.90;;;;;;5052197;28;20189;-66
2021/11/24 08:41:22;;;;;;;3.88;1.08;;;18.90;57.90;;;;;;5051819;28;20199;-64
2021/11/24 08:43:48;;;;;;;1.38;1.00;;;18.90;58.00;;;;;;5051844;28;20683;-66
2021/11/24 08:46:13;;;;;;;1.17;0.80;;;18.80;58.20;;;;;;5062703;28;20217;-66
2021/11/24 08:48:39;;;;;;;1.48;0.88;;;18.70;58.40;;;;;;5070939;28;20171;-66
2021/11/24 08:51:05;;;;;;;2.55;1.20;;;18.60;58.40;;;;;;5072125;28;20219;-65
2021/11/24 08:53:31;;;;;;;1.80;1.00;;;18.50;58.60;;;;;;5069078;28;20216;-66
2021/11/24 08:55:56;;;;;;;2.55;1.13;;;18.50;58.80;;;;;;5051544;28;20187;-66
2021/11/24 08:58:22;;;;;;;3.28;0.90;;;18.40;58.80;;;;;;5052184;28;20167;-65
2021/11/24 09:00:47;;;;;;;2.08;1.00;;;18.30;59.00;;;;;;5051932;28;20171;-63
2021/11/24 09:03:13;;;;;;;1.77;0.90;;;18.30;59.20;;;;;;5061558;28;20567;-69
2021/11/24 09:05:38;;;;;;;4.68;1.05;;;18.20;59.40;;;;;;5071828;28;20531;-66
2021/11/24 09:08:04;;;;;;;2.92;1.00;;;18.10;59.70;;;;;;5071479;28;20289;-66
2021/11/24 09:10:31;;;;;;;4.95;1.10;;;18.10;59.80;;;;;;5071536;28;20166;-65
2021/11/24 09:12:57;;;;;;;2.42;1.40;;;18.10;59.80;;;;;;5071831;28;20643;-66
2021/11/24 09:15:22;;;;;;;2.38;1.08;;;18.10;59.90;;;;;;5071122;28;20213;-64
2021/11/24 09:17:48;;;;;;;3.15;1.10;;;18.20;59.80;;;;;;5070795;28;20198;-65
2021/11/24 09:20:13;;;;;;;3.80;1.17;;;18.30;59.80;;;;;;5071949;28;20595;-64
2021/11/24 09:22:42;;;;;;;2.55;0.90;;;18.30;59.60;;;;;;5070412;28;20181;-68
2021/11/24 09:25:10;;;;;;;4.68;1.10;;;18.40;59.50;;;;;;5071540;28;20597;-65
2021/11/24 09:27:46;;;;;;;2.17;0.80;;;18.40;59.50;;;;;;5071481;28;20548;-66
2021/11/24 09:30:12;;;;;;;2.83;0.90;;;18.50;59.50;;;;;;5071126;28;20215;-65
2021/11/24 09:32:37;;;;;;;1.40;0.90;;;18.50;59.60;;;;;;5071304;28;20218;-65
2021/11/24 09:35:03;;;;;;;3.03;0.98;;;18.40;59.50;;;;;;5071421;28;20582;-60
2021/11/24 09:37:29;;;;;;;2.97;1.02;;;18.40;59.70;;;;;;5058787;28;20182;-62
2021/11/24 09:39:56;;;;;;;4.20;1.30;;;18.30;59.70;;;;;;5051469;28;20179;-65
2021/11/24 09:42:21;;;;;;;1.23;1.13;;;18.20;59.90;;;;;;5051647;28;20183;-62
2021/11/24 09:44:47;;;;;;;2.53;1.17;;;18.20;60.00;;;;;;5032756;28;20174;-69
2021/11/24 09:47:14;;;;;;;3.78;1.40;;;18.10;60.10;;;;;;5051411;28;20372;-66
2021/11/24 09:49:39;;;;;;;5.72;1.17;;;18.20;60.30;;;;;;5051084;28;20701;-67
2021/11/24 09:52:06;;;;;;;4.38;1.27;;;18.20;60.00;;;;;;5033216;28;20274;-67
2021/11/24 09:54:31;;;;;;;2.15;0.80;;;18.30;60.00;;;;;;5049951;28;20221;-66
2021/11/24 09:56:57;;;;;;;2.75;1.00;;;18.40;59.90;;;;;;5033836;28;20167;-66
2021/11/24 09:59:22;;;;;;;2.45;1.30;;;18.30;59.90;;;;;;5050771;28;20229;-66
2021/11/24 10:01:48;;;;;;;1.52;0.80;;;18.30;60.00;;;;;;5050811;28;20182;-66
2021/11/24 10:04:13;;;;;;;1.60;0.80;;;18.20;60.00;;;;;;5050047;28;20525;-66
2021/11/24 10:06:39;;;;;;;2.38;1.00;;;18.20;60.30;;;;;;5049134;28;20258;-67
2021/11/24 10:09:06;;;;;;;1.83;1.13;;;18.10;60.40;;;;;;5051463;28;20266;-65
2021/11/24 10:11:31;;;;;;;3.17;0.90;;;18.10;60.50;;;;;;5050594;28;20172;-65
2021/11/24 10:13:58;;;;;;;1.33;0.70;;;18.10;60.50;;;;;;5051261;28;20265;-65
2021/11/24 10:16:25;;;;;;;1.15;0.90;;;18.20;60.50;;;;;;5033868;28;20175;-65
2021/11/24 10:19:05;;;;;;;1.52;0.70;;;18.20;60.40;;;;;;5050237;28;20540;-65
2021/11/24 10:21:31;;;;;;;2.28;0.93;;;18.30;60.40;;;;;;5051208;28;20300;-68
2021/11/24 10:24:04;;;;;;;1.58;0.93;;;18.20;60.30;;;;;;5051468;28;20212;-65
2021/11/24 10:26:35;;;;;;;2.78;1.30;;;18.20;60.30;;;;;;5050282;28;20262;-66
2021/11/24 10:29:03;;;;;;;2.15;1.05;;;18.20;60.80;;;;;;5051977;28;20206;-66
2021/11/24 10:31:36;;;;;;;1.15;0.90;;;18.10;61.00;;;;;;5053969;28;20182;-67
2021/11/24 10:34:11;;;;;;;6.50;1.20;;;18.10;61.10;;;;;;5053124;28;20692;-67
2021/11/24 10:36:36;;;;;;;1.38;0.80;;;18.00;61.00;;;;;;5054484;28;20170;-67
2021/11/24 10:39:02;;;;;;;3.67;1.17;;;18.10;61.30;;;;;;5036122;28;20175;-65
2021/11/24 10:41:37;;;;;;;3.97;1.15;;;18.10;61.20;;;;;;5052491;28;20171;-65
2021/11/24 10:44:03;;;;;;;2.17;0.93;;;18.10;61.10;;;;;;5054110;28;20197;-65
2021/11/24 10:46:29;;;;;;;1.40;0.90;;;18.10;61.10;;;;;;5054163;28;20246;-65
2021/11/24 10:49:01;;;;;;;1.75;0.80;;;18.10;61.00;;;;;;5053601;28;20545;-65
2021/11/24 10:51:40;;;;;;;3.20;1.38;;;18.10;61.10;;;;;;5054613;28;20187;-65
2021/11/24 10:54:18;;;;;;;1.25;0.68;;;18.20;61.20;;;;;;5053584;28;20214;-64
2021/11/24 10:57:05;;;;;;;3.30;0.95;;;18.10;61.30;;;;;;5054173;28;20203;-64
2021/11/24 10:59:32;;;;;;;1.98;0.75;;;18.10;61.40;;;;;;5053948;28;20688;-66
2021/11/24 11:02:33;;;;;;;1.95;0.80;;;18.00;61.40;;;;;;5053449;28;20202;-64
2021/11/24 11:05:03;;;;;;;2.72;0.88;;;18.00;61.60;;;;;;5053559;28;20263;-66
2021/11/24 11:07:30;;;;;;;3.63;1.33;;;18.00;61.60;;;;;;5053847;28;20183;-65
2021/11/24 11:10:10;;;;;;;1.65;1.17;;;18.00;61.50;;;;;;5053282;28;20186;-65
2021/11/24 11:12:37;;;;;;;1.75;1.13;;;18.00;61.30;;;;;;5053572;28;20295;-65
2021/11/24 11:15:26;;;;;;;3.25;0.98;;;18.00;61.20;;;;;;5053166;28;20558;-65
2021/11/24 11:18:04;;;;;;;3.25;1.25;;;18.00;61.30;;;;;;5053773;28;20253;-66
2021/11/24 11:20:35;;;;;;;1.48;0.90;;;17.90;61.30;;;;;;5053629;28;20179;-66
2021/11/24 11:23:04;;;;;;;1.85;1.00;;;17.90;61.30;;;;;;5052726;28;20171;-67
2021/11/24 11:25:31;;;;;;;3.33;1.33;;;17.90;61.40;;;;;;5053549;28;20189;-59
2021/11/24 11:27:57;;;;;;;2.33;0.73;;;17.90;61.30;;;;;;5054070;28;20540;-61
2021/11/24 11:30:22;;;;;;;0.85;0.82;;;17.80;61.40;;;;;;5053025;28;20179;-64
2021/11/24 11:32:48;;;;;;;2.13;1.20;;;17.80;61.50;;;;;;5053109;28;20959;-66
2021/11/24 11:35:13;;;;;;;3.42;1.08;;;17.80;61.60;;;;;;5053648;28;20533;-66
2021/11/24 11:37:43;;;;;;;2.72;1.10;;;17.80;61.70;;;;;;5052400;28;20179;-66
2021/11/24 11:40:11;;;;;;;1.48;1.00;;;17.70;61.70;;;;;;5052145;28;20208;-66
2021/11/24 11:42:37;;;;;;;1.23;1.13;;;17.70;61.60;;;;;;5052683;28;20195;-66
2021/11/24 11:45:07;;;;;;;4.10;0.90;;;17.70;61.60;;;;;;5052480;28;20300;-65
2021/11/24 11:47:53;;;;;;;2.10;1.00;;;17.70;61.70;;;;;;5053098;28;20182;-65
2021/11/24 11:50:37;;;;;;;8.43;1.10;;;17.70;61.70;;;;;;5052293;28;20697;-66
2021/11/24 11:53:10;;;;;;;4.00;0.90;;;17.80;61.90;;;;;;5053103;28;20227;-65
2021/11/24 11:55:36;;;;;;;7.55;1.63;;;17.70;62.00;;;;;;5052729;28;20229;-67
2021/11/24 11:58:01;;;;;;;2.97;1.13;;;17.60;61.90;;;;;;5052317;28;20183;-66
2021/11/24 12:00:33;;;;;;;3.33;0.93;;;17.60;62.00;;;;;;5053078;28;20175;-65
2021/11/24 12:03:01;;;;;;;2.55;1.15;;;17.70;61.90;;;;;;5052606;28;20259;-70
2021/11/24 12:05:27;;;;;;;4.28;1.33;;;17.70;62.00;;;;;;5052373;28;20255;-67
2021/11/24 12:08:09;;;;;;;5.32;1.33;;;17.70;61.80;;;;;;5052604;28;20268;-68
2021/11/24 12:11:00;;;;;;;2.42;1.23;;;17.60;61.80;;;;;;5052604;28;20566;-67
2021/11/24 12:13:32;;;;;;;2.55;1.23;;;17.60;61.80;;;;;;5052703;28;20213;-68
2021/11/24 12:15:58;;;;;;;1.20;1.10;;;17.60;61.90;;;;;;5052775;28;20639;-65
2021/11/24 12:18:23;;;;;;;1.85;1.25;;;17.60;61.90;;;;;;5052533;28;20266;-64
2021/11/24 12:20:51;;;;;;;2.90;1.10;;;17.60;62.00;;;;;;5051473;28;20179;-63
2021/11/24 12:23:17;;;;;;;5.35;1.45;;;17.50;62.10;;;;;;5051713;28;20171;-63
2021/11/24 12:25:43;;;;;;;1.23;1.13;;;17.50;62.20;;;;;;5051976;28;20210;-64
2021/11/24 12:28:12;;;;;;;4.40;1.15;;;17.60;62.20;;;;;;5052708;28;20178;-64
2021/11/24 12:30:54;;;;;;;3.08;1.02;;;17.60;62.20;;;;;;5052646;28;20221;-66
2021/11/24 12:33:26;;;;;;;1.70;0.90;;;17.60;62.30;;;;;;5051977;28;20245;-65
2021/11/24 12:36:11;;;;;;;2.85;1.00;;;17.60;62.20;;;;;;5052183;28;20523;-66
2021/11/24 12:38:42;;;;;;;3.45;1.10;;;17.50;62.20;;;;;;5032185;28;20202;-66
2021/11/24 12:41:19;;;;;;;3.42;1.42;;;17.50;62.20;;;;;;5031388;28;20255;-65
2021/11/24 12:43:46;;;;;;;5.72;1.20;;;17.40;62.20;;;;;;5031947;28;20227;-65
2021/11/24 12:46:20;;;;;;;1.40;1.15;;;17.40;62.30;;;;;;5030952;28;20219;-65
2021/11/24 12:48:56;;;;;;;2.08;0.98;;;17.40;62.30;;;;;;5031814;28;20178;-65
2021/11/24 12:51:36;;;;;;;1.35;1.08;;;17.30;62.40;;;;;;5032269;28;20668;-65